Nearby METAR Reports

 

KFRG - , , USA
Distance from station: SSW 12mi, 20km
Updated: 01/22/2017 5:00pm
Overcast
Overcast
 Wind from E
Wind: E 10 mph , 17 km/h
Temperature: 52°F , 11°C
Dew Point: 45°F , 7°C
Humidity: 77%
Barometer: 29.73 inHg , 1006.8 hPa
Clouds: Overcast
Visibility: 10 miles , 16 km
Cloud details: Partly Cloudy 6000 ft
Overcast 8500 ft
2017/01/22 22:00 KFRG 222200Z 08009KT 10SM SCT060 OVC085 11/07 A2973 RMK AO2 T01060067
KISP - , , USA
Distance from station: ESE 14mi, 23km
Updated: 01/22/2017 4:56pm
Overcast
Overcast
 Wind from E
Wind: E 10 mph , 17 km/h
Temperature: 50°F , 10°C
Wind Chill: 46°F , 8°C
Dew Point: 45°F , 7°C
Humidity: 82%
Barometer: 29.73 inHg , 1006.8 hPa
Clouds: Overcast
Visibility: 10 miles , 16 km
Cloud details: Mostly Cloudy 6000 ft
Overcast 8000 ft
2017/01/22 21:56 KISP 222156Z 08009KT 10SM BKN060 OVC080 10/07 A2973 RMK AO2 SLP068 T01000067
 
KBDR - , , USA
Distance from station: NNE 21mi, 34km
Updated: 01/22/2017 4:52pm
Overcast
Overcast
 Wind from ENE
Wind: ENE 8 mph , 13 km/h
Temperature: 46°F , 8°C
Wind Chill: 42°F , 6°C
Dew Point: 39°F , 4°C
Humidity: 76%
Barometer: 29.75 inHg , 1007.5 hPa
Clouds: Overcast
Visibility: 10 miles , 16 km
Cloud details: Overcast 3000 ft
2017/01/22 21:52 KBDR 222152Z 06007KT 10SM OVC030 08/04 A2975 RMK AO2 SLP075 T00780044
KHPN - , , USA
Distance from station: WNW 22mi, 35km
Updated: 01/22/2017 4:56pm
Mostly Cloudy
Mostly Cloudy
 Wind from S
Wind: S 12 mph , 19 km/h
Temperature: 48°F , 9°C
Wind Chill: 43°F , 6°C
Barometer: 29.74 inHg , 1007.1 hPa
Clouds: Mostly Cloudy
Visibility: 7 miles , 11 km
Cloud details: Mostly Cloudy 4600 ft
Mostly Cloudy 6500 ft
2017/01/22 21:56 KHPN 222156Z 18010KT 7SM BKN046 BKN065 09/ A2974 RMK AO2 RAB03E24 SLP072 P0000 T0089 $
 
KHWV - , , USA
Distance from station: ESE 26mi, 41km
Updated: 01/22/2017 4:56pm
Overcast
Overcast
 Wind from varies
Wind: varies 6 mph , 9 km/h
Temperature: 48°F , 9°C
Wind Chill: 45°F , 7°C
Dew Point: 43°F , 6°C
Humidity: 82%
Barometer: 29.75 inHg , 1007.5 hPa
Clouds: Overcast
Visibility: 10 miles , 16 km
Cloud details: Mostly Cloudy 2800 ft
Overcast 8000 ft
2017/01/22 21:56 KHWV 222156Z AUTO VRB05KT 10SM BKN028 OVC080 09/06 A2975 RMK AO2 SLP073 T00940061 TSNO
KJFK - , , USA
Distance from station: SW 29mi, 46km
Updated: 01/22/2017 4:51pm
Mist, Overcast
Mist, Overcast
 Wind from NNE
Wind: NNE 7 mph , 11 km/h
Temperature: 48°F , 9°C
Wind Chill: 45°F , 7°C
Dew Point: 48°F , 9°C
Humidity: 100%
Barometer: 29.73 inHg , 1006.8 hPa
Summary: Mist
Clouds: Overcast
Visibility: 6 miles , 10 km
Cloud details: Overcast 2600 ft
2017/01/22 21:51 KJFK 222151Z 03006KT 6SM BR OVC026 09/09 A2973 RMK AO2 RAE12 SLP067 P0000 T00940094 $
 
KLGA - , , USA
Distance from station: WSW 29mi, 47km
Updated: 01/22/2017 4:51pm
Mist, Overcast
Mist, Overcast
 Wind from NE
Wind: NE 12 mph , 19 km/h
Temperature: 46°F , 8°C
Wind Chill: 40°F , 4°C
Dew Point: 43°F , 6°C
Humidity: 87%
Barometer: 29.73 inHg , 1006.8 hPa
Summary: Mist
Clouds: Overcast
Visibility: 6 miles , 10 km
Cloud details: Mostly Cloudy 2200 ft
Mostly Cloudy 3100 ft
Overcast 6000 ft
2017/01/22 21:51 KLGA 222151Z 05010KT 6SM BR BKN022 BKN031 OVC060 08/06 A2973 RMK AO2 RAE33 SLP066 P0003 T00780056 $